Time;durP1;ratioP1;P1;durP2;ratioP2;P2;SDS_P1;SDS_P2;PMS_P1;PMS_P2;Temp;Humidity;BMP_temperature;BMP_pressure;BME280_temperature;BME280_humidity;BME280_pressure;Samples;Min_cycle;Max_cycle;Signal;HPM_P1;HPM_P2
2022/09/01 00:02:19;;;;;;;1.97;1.73;;;12.00;99.90;;;;;;4875336;29;20448;-50
2022/09/01 00:04:46;;;;;;;1.93;1.47;;;11.90;99.90;;;;;;4882585;29;20540;-50
2022/09/01 00:07:12;;;;;;;1.50;1.40;;;11.90;99.90;;;;;;4890381;29;20504;-50
2022/09/01 00:09:39;;;;;;;2.00;1.80;;;11.90;99.90;;;;;;4876787;29;20966;-50
2022/09/01 00:12:07;;;;;;;1.80;1.70;;;11.90;99.90;;;;;;4875890;29;20950;-50
2022/09/01 00:14:35;;;;;;;4.23;1.80;;;11.80;99.90;;;;;;4877916;29;20669;-50
2022/09/01 00:17:05;;;;;;;1.70;1.60;;;11.80;1.00;;;;;;4867529;29;20485;-50
2022/09/01 00:19:32;;;;;;;1.67;1.57;;;11.80;1.00;;;;;;4873725;29;20503;-50
2022/09/01 00:21:59;;;;;;;1.63;1.53;;;11.70;1.00;;;;;;4876676;29;20449;-50
2022/09/01 00:24:25;;;;;;;1.50;1.40;;;11.70;1.00;;;;;;4859864;29;20445;-50
2022/09/01 00:26:52;;;;;;;2.33;1.53;;;11.70;1.00;;;;;;4866545;29;20488;-50
2022/09/01 00:29:17;;;;;;;6.27;1.90;;;11.70;1.00;;;;;;4861281;29;20471;-50
2022/09/01 00:31:43;;;;;;;1.70;1.60;;;11.60;1.00;;;;;;4859535;29;21098;-50
2022/09/01 00:34:09;;;;;;;3.83;1.90;;;11.60;1.00;;;;;;4859154;29;21013;-51
2022/09/01 00:36:35;;;;;;;1.70;1.60;;;11.60;1.00;;;;;;4859749;29;20838;-51
2022/09/01 00:39:02;;;;;;;2.80;1.70;;;11.50;1.00;;;;;;4862578;29;20452;-50
2022/09/01 00:41:31;;;;;;;6.37;1.90;;;11.50;1.00;;;;;;4863034;29;20281;-50
2022/09/01 00:44:00;;;;;;;1.60;1.50;;;11.40;39.50;;;;;;4864670;29;20556;-49
2022/09/01 00:46:31;;;;;;;1.87;1.70;;;11.40;99.90;;;;;;4862704;29;20464;-49
2022/09/01 00:49:06;;;;;;;1.73;1.63;;;11.40;99.90;;;;;;4871656;29;20448;-51
2022/09/01 00:51:34;;;;;;;1.80;1.70;;;11.40;99.90;;;;;;4861859;29;20448;-49
2022/09/01 00:54:01;;;;;;;2.80;2.00;;;11.40;99.90;;;;;;4863828;29;20460;-49
2022/09/01 00:56:27;;;;;;;1.83;1.73;;;11.30;99.90;;;;;;4862318;29;20483;-50
2022/09/01 00:58:53;;;;;;;2.13;1.90;;;11.30;99.90;;;;;;4864201;29;20508;-49
2022/09/01 01:01:19;;;;;;;1.80;1.70;;;11.30;1.00;;;;;;4858917;29;20444;-49
2022/09/01 01:03:45;;;;;;;1.83;1.73;;;11.20;1.00;;;;;;4861087;29;22613;-49
2022/09/01 01:06:14;;;;;;;1.70;1.60;;;11.20;1.00;;;;;;4864322;29;20501;-53
2022/09/01 01:08:48;;;;;;;2.50;1.87;;;11.20;1.00;;;;;;4869876;29;20495;-49
2022/09/01 01:11:16;;;;;;;2.07;1.97;;;11.20;1.00;;;;;;4874491;29;20535;-50
2022/09/01 01:13:57;;;;;;;4.33;2.00;;;11.10;1.00;;;;;;4879419;29;21286;-50
2022/09/01 01:16:25;;;;;;;2.00;1.90;;;11.10;99.90;;;;;;4880269;29;20547;-50
2022/09/01 01:18:51;;;;;;;2.10;1.80;;;11.10;99.90;;;;;;4865192;29;20513;-50
2022/09/01 01:24:33;;;;;;;1.83;1.73;;;11.10;99.90;;;;;;4861839;29;20521;-49
2022/09/01 01:26:59;;;;;;;1.97;1.70;;;11.10;99.90;;;;;;4871076;29;20484;-51
2022/09/01 01:29:30;;;;;;;2.83;2.27;;;11.00;99.90;;;;;;4862075;29;20464;-49
2022/09/01 01:31:56;;;;;;;2.10;1.90;;;11.00;1.00;;;;;;4861581;29;20552;-49
2022/09/01 01:34:22;;;;;;;2.30;2.10;;;11.00;1.00;;;;;;4859700;29;20451;-49
2022/09/01 01:36:48;;;;;;;2.23;2.03;;;11.00;1.00;;;;;;4862236;29;20268;-54
2022/09/01 01:39:24;;;;;;;1.93;1.80;;;11.00;13.90;;;;;;4868331;29;20540;-56
2022/09/01 01:41:51;;;;;;;2.10;1.80;;;11.00;21.30;;;;;;4877843;29;20458;-53
2022/09/01 01:44:21;;;;;;;2.60;2.30;;;10.90;1.00;;;;;;4861543;29;20962;-53
2022/09/01 01:46:50;;;;;;;2.37;2.10;;;10.90;45.30;;;;;;4877651;29;20459;-53
2022/09/01 01:49:20;;;;;;;2.10;2.00;;;10.80;99.90;;;;;;4878361;29;20449;-54
2022/09/01 01:51:47;;;;;;;2.13;1.90;;;10.80;99.90;;;;;;4876945;29;20484;-53
2022/09/01 01:54:14;;;;;;;3.30;2.30;;;10.80;1.00;;;;;;4877522;29;20444;-53
2022/09/01 01:56:40;;;;;;;2.27;2.07;;;10.80;1.00;;;;;;4877181;29;20485;-54
2022/09/01 01:59:12;;;;;;;2.37;2.17;;;10.80;1.00;;;;;;4875808;29;20433;-53
2022/09/01 02:01:38;;;;;;;2.40;2.20;;;10.70;38.20;;;;;;4870787;29;20460;-54
2022/09/01 02:04:04;;;;;;;2.40;2.20;;;10.70;55.00;;;;;;4877120;29;20809;-53
2022/09/01 02:06:33;;;;;;;4.03;2.10;;;10.70;99.90;;;;;;4877635;29;20200;-53
2022/09/01 02:09:02;;;;;;;6.13;2.30;;;10.60;99.90;;;;;;4872829;29;20453;-52
2022/09/01 02:11:28;;;;;;;2.43;2.33;;;10.60;99.90;;;;;;4877233;29;20440;-53
2022/09/01 02:13:56;;;;;;;2.33;2.13;;;10.60;1.00;;;;;;4877682;29;20444;-53
2022/09/01 02:16:23;;;;;;;2.40;2.20;;;10.60;1.00;;;;;;4877803;29;20492;-53
2022/09/01 02:18:50;;;;;;;2.70;2.50;;;10.50;1.00;;;;;;4871242;29;21329;-52
2022/09/01 02:21:19;;;;;;;2.90;2.10;;;10.50;99.90;;;;;;4877790;29;20559;-53
2022/09/01 02:24:01;;;;;;;2.50;2.23;;;10.50;1.00;;;;;;4877502;29;20473;-53
2022/09/01 02:26:44;;;;;;;2.30;2.07;;;10.50;99.90;;;;;;4876979;29;20961;-52
2022/09/01 02:29:20;;;;;;;2.87;2.67;;;10.50;95.80;;;;;;4876623;29;20810;-53
2022/09/01 02:31:49;;;;;;;2.60;2.40;;;10.40;11.00;;;;;;4877558;29;20440;-53
2022/09/01 02:34:15;;;;;;;3.43;2.57;;;10.40;68.90;;;;;;4860613;29;20455;-57
2022/09/01 02:36:47;;;;;;;2.60;2.40;;;10.40;28.20;;;;;;4877561;29;20481;-53
2022/09/01 02:39:19;;;;;;;2.83;2.63;;;10.40;99.90;;;;;;4875459;29;20802;-53
2022/09/01 02:41:45;;;;;;;4.43;2.70;;;10.40;1.00;;;;;;4877018;29;20457;-52
2022/09/01 02:44:10;;;;;;;3.03;2.83;;;10.30;99.90;;;;;;4869318;29;20844;-51
2022/09/01 02:46:44;;;;;;;2.80;2.60;;;10.30;1.00;;;;;;4877945;29;20539;-53
2022/09/01 02:49:16;;;;;;;4.30;2.60;;;10.30;99.90;;;;;;4877336;29;20208;-53
2022/09/01 02:51:43;;;;;;;4.37;3.10;;;10.30;1.00;;;;;;4875683;29;20455;-53
2022/09/01 02:54:12;;;;;;;3.03;2.73;;;10.30;99.90;;;;;;4876491;29;21353;-52
2022/09/01 02:56:38;;;;;;;3.87;3.23;;;10.30;99.90;;;;;;4875613;29;20571;-53
2022/09/01 02:59:04;;;;;;;2.73;2.53;;;10.30;1.00;;;;;;4875732;29;20564;-52
2022/09/01 03:01:32;;;;;;;4.00;3.00;;;10.30;1.00;;;;;;4877102;29;20192;-49
2022/09/01 03:04:01;;;;;;;3.37;3.07;;;10.30;1.00;;;;;;4874614;29;21136;-49
2022/09/01 03:06:28;;;;;;;3.30;2.33;;;10.30;1.00;;;;;;4875435;29;20457;-48
2022/09/01 03:08:57;;;;;;;3.20;2.87;;;10.20;11.00;;;;;;4876218;29;20461;-48
2022/09/01 03:11:23;;;;;;;4.73;2.57;;;10.20;1.00;;;;;;4868651;29;20440;-49
2022/09/01 03:13:49;;;;;;;3.40;3.10;;;10.20;1.00;;;;;;4876176;29;20970;-49
2022/09/01 03:16:15;;;;;;;3.00;2.80;;;10.10;13.50;;;;;;4876849;29;20327;-53
2022/09/01 03:18:41;;;;;;;5.23;3.43;;;10.10;99.90;;;;;;4875632;29;20196;-49
2022/09/01 03:21:08;;;;;;;4.50;3.00;;;10.10;99.90;;;;;;4876276;29;21011;-49
2022/09/01 03:23:34;;;;;;;7.13;3.10;;;10.10;99.90;;;;;;4876945;29;20453;-49
2022/09/01 03:26:00;;;;;;;3.60;2.60;;;10.10;99.90;;;;;;4876467;29;20507;-49
2022/09/01 03:28:26;;;;;;;3.23;2.93;;;10.00;99.90;;;;;;4874854;29;20488;-49
2022/09/01 03:30:53;;;;;;;3.20;2.70;;;10.00;1.00;;;;;;4876321;29;20212;-48
2022/09/01 03:33:22;;;;;;;2.67;2.47;;;10.00;99.90;;;;;;4876122;29;20279;-49
2022/09/01 03:35:48;;;;;;;4.43;2.63;;;9.90;1.00;;;;;;4883413;29;20835;-49
2022/09/01 03:38:22;;;;;;;4.77;2.87;;;9.90;1.00;;;;;;4876079;29;20995;-49
2022/09/01 03:40:50;;;;;;;3.13;2.80;;;9.80;1.00;;;;;;4874875;29;20535;-49
2022/09/01 03:43:18;;;;;;;3.47;3.13;;;9.80;1.00;;;;;;4859849;29;20843;-49
2022/09/01 03:45:45;;;;;;;5.83;3.30;;;9.80;1.00;;;;;;4875839;29;20539;-49
2022/09/01 03:48:11;;;;;;;4.43;3.23;;;9.80;1.00;;;;;;4875909;29;20821;-50
2022/09/01 03:50:44;;;;;;;3.83;3.30;;;9.80;1.00;;;;;;4876529;29;21003;-48
2022/09/01 03:53:11;;;;;;;3.57;3.23;;;9.80;8.10;;;;;;4875795;29;20859;-49
2022/09/01 03:55:37;;;;;;;3.40;3.10;;;9.80;99.90;;;;;;4869029;29;20476;-48
2022/09/01 03:58:06;;;;;;;3.37;3.00;;;9.70;99.90;;;;;;4875301;29;20447;-49
2022/09/01 04:00:42;;;;;;;3.93;3.57;;;9.70;99.90;;;;;;4875327;29;20583;-48
2022/09/01 04:03:11;;;;;;;3.50;3.20;;;9.70;99.90;;;;;;4874939;29;20535;-49
2022/09/01 04:05:42;;;;;;;3.17;2.87;;;9.70;99.90;;;;;;4874808;29;20544;-48
2022/09/01 04:08:12;;;;;;;3.80;3.50;;;9.70;99.90;;;;;;4876771;29;20531;-48
2022/09/01 04:10:50;;;;;;;5.03;3.57;;;9.70;99.90;;;;;;4870766;29;20447;-49
2022/09/01 04:13:18;;;;;;;4.33;3.63;;;9.70;99.90;;;;;;4876379;29;20461;-49
2022/09/01 04:15:44;;;;;;;3.93;3.43;;;9.70;99.90;;;;;;4878202;29;20567;-49
2022/09/01 04:18:19;;;;;;;4.07;3.47;;;9.70;1.00;;;;;;4879032;29;20452;-51
2022/09/01 04:20:47;;;;;;;4.80;3.40;;;9.70;1.00;;;;;;4873956;29;20450;-54
2022/09/01 04:23:32;;;;;;;5.90;3.70;;;9.70;1.00;;;;;;4880027;29;20978;-49
2022/09/01 04:26:08;;;;;;;3.27;3.00;;;9.70;1.00;;;;;;4864160;29;20456;-49
2022/09/01 04:28:38;;;;;;;3.40;3.10;;;9.60;1.00;;;;;;4871463;29;20500;-49
2022/09/01 04:31:08;;;;;;;3.40;2.90;;;9.60;1.00;;;;;;4878526;29;20523;-49
2022/09/01 04:33:40;;;;;;;3.50;3.20;;;9.60;1.00;;;;;;4859862;29;21150;-49
2022/09/01 04:36:18;;;;;;;3.23;2.90;;;9.60;1.00;;;;;;4875523;29;20476;-49
2022/09/01 04:38:48;;;;;;;5.10;3.30;;;9.50;1.00;;;;;;4879523;29;20448;-49
2022/09/01 04:41:16;;;;;;;3.70;3.40;;;9.50;1.00;;;;;;4880356;29;20463;-49
2022/09/01 04:43:44;;;;;;;4.00;3.57;;;9.50;1.00;;;;;;4864006;29;20468;-49
2022/09/01 04:46:12;;;;;;;3.80;3.50;;;9.50;1.00;;;;;;4879600;29;20449;-49
2022/09/01 04:48:42;;;;;;;9.33;5.00;;;9.50;1.00;;;;;;4879517;29;20452;-49
2022/09/01 04:51:09;;;;;;;3.80;3.50;;;9.50;1.00;;;;;;4877875;29;20468;-49
2022/09/01 04:53:35;;;;;;;3.90;3.57;;;9.50;1.00;;;;;;4877903;29;20916;-49
2022/09/01 04:56:05;;;;;;;4.10;3.43;;;9.60;1.00;;;;;;4879275;29;20483;-48
2022/09/01 04:58:32;;;;;;;3.80;3.50;;;9.60;1.00;;;;;;4878540;29;20554;-49
2022/09/01 05:00:59;;;;;;;3.67;3.33;;;9.60;1.00;;;;;;4872995;29;20472;-49
2022/09/01 05:03:25;;;;;;;4.03;3.40;;;9.60;1.00;;;;;;4863470;29;20551;-49
2022/09/01 05:05:52;;;;;;;3.97;3.03;;;9.60;1.00;;;;;;4878850;29;20511;-49
2022/09/01 05:08:22;;;;;;;5.80;3.90;;;9.60;1.00;;;;;;4876020;29;20799;-49
2022/09/01 05:10:50;;;;;;;3.33;3.07;;;9.60;1.00;;;;;;4879136;29;20444;-49
2022/09/01 05:13:16;;;;;;;4.80;3.37;;;9.60;1.00;;;;;;4877783;29;20811;-49
2022/09/01 05:15:47;;;;;;;4.67;3.70;;;9.70;1.00;;;;;;4877370;29;20484;-49
2022/09/01 05:18:22;;;;;;;3.93;3.60;;;9.70;1.00;;;;;;4879082;29;20445;-49
2022/09/01 05:20:51;;;;;;;3.80;3.50;;;9.70;1.00;;;;;;4878605;29;20916;-48
2022/09/01 05:23:18;;;;;;;3.73;3.30;;;9.80;1.00;;;;;;4876924;29;20487;-49
2022/09/01 05:25:48;;;;;;;6.13;3.50;;;9.80;1.00;;;;;;4879247;29;20460;-49
2022/09/01 05:28:17;;;;;;;4.90;3.70;;;9.90;1.00;;;;;;4892737;29;20919;-49
2022/09/01 05:30:45;;;;;;;4.20;3.80;;;9.90;1.00;;;;;;4883664;29;20453;-49
2022/09/01 05:33:15;;;;;;;8.23;4.60;;;10.00;1.00;;;;;;4880292;29;20569;-50
2022/09/01 05:35:43;;;;;;;4.63;4.23;;;10.00;1.00;;;;;;4892532;29;20490;-56
2022/09/01 05:38:12;;;;;;;4.50;3.93;;;10.10;1.00;;;;;;4887077;29;20493;-53
2022/09/01 05:40:42;;;;;;;4.33;3.87;;;10.20;1.00;;;;;;4896419;29;20432;-53
2022/09/01 05:43:11;;;;;;;5.47;4.33;;;10.30;1.00;;;;;;4879104;29;20476;-53
2022/09/01 05:45:44;;;;;;;5.50;4.80;;;10.30;1.00;;;;;;4887189;29;20456;-53
2022/09/01 05:48:11;;;;;;;5.53;3.90;;;10.40;1.00;;;;;;4879811;29;20507;-52
2022/09/01 05:50:44;;;;;;;7.20;4.03;;;10.50;1.00;;;;;;4879989;29;20732;-53
2022/09/01 05:53:14;;;;;;;6.07;4.23;;;10.60;1.00;;;;;;4879917;29;20435;-54
2022/09/01 05:55:42;;;;;;;4.67;3.90;;;10.70;1.00;;;;;;4879369;29;20465;-54
2022/09/01 05:58:12;;;;;;;5.07;4.43;;;10.80;1.00;;;;;;4879459;29;20428;-53
2022/09/01 06:00:39;;;;;;;6.13;5.10;;;10.90;1.00;;;;;;4879571;29;20963;-52
2022/09/01 06:03:05;;;;;;;10.50;4.73;;;11.10;1.00;;;;;;4888187;29;20496;-54
2022/09/01 06:05:35;;;;;;;12.53;5.10;;;11.30;1.00;;;;;;4882424;29;20556;-53
2022/09/01 06:08:02;;;;;;;5.77;4.70;;;11.50;1.00;;;;;;4880684;29;20464;-54
2022/09/01 06:10:29;;;;;;;9.53;4.83;;;11.90;1.00;;;;;;4879267;29;20524;-54
2022/09/01 06:12:55;;;;;;;5.80;4.40;;;12.30;1.00;;;;;;4878034;29;20529;-53
2022/09/01 06:15:21;;;;;;;7.50;4.37;;;12.80;1.00;;;;;;4878769;29;20460;-53
2022/09/01 06:17:47;;;;;;;8.83;3.87;;;13.20;1.00;;;;;;4870962;29;20452;-54
2022/09/01 06:20:16;;;;;;;4.53;3.67;;;13.50;1.00;;;;;;4877862;29;20522;-61
2022/09/01 06:22:44;;;;;;;4.50;3.60;;;13.90;1.00;;;;;;4878845;29;20436;-55
2022/09/01 06:25:09;;;;;;;4.03;3.17;;;14.20;99.90;;;;;;4892439;29;20808;-54
2022/09/01 06:27:39;;;;;;;3.97;3.23;;;14.50;99.90;;;;;;4879962;29;20492;-55
2022/09/01 06:30:13;;;;;;;5.77;2.80;;;14.80;1.00;;;;;;4878320;29;20243;-55
2022/09/01 06:32:42;;;;;;;2.60;2.40;;;15.10;99.90;;;;;;4878024;29;20445;-55
2022/09/01 06:35:12;;;;;;;6.40;2.53;;;15.40;19.80;;;;;;4860187;29;20471;-55
2022/09/01 06:37:39;;;;;;;3.70;2.63;;;15.70;1.00;;;;;;4844928;29;20479;-55
2022/09/01 06:40:06;;;;;;;2.77;2.57;;;15.90;99.90;;;;;;4877715;29;20449;-55
2022/09/01 06:42:34;;;;;;;3.70;2.00;;;16.20;74.00;;;;;;4878518;29;20873;-55
2022/09/01 06:45:00;;;;;;;2.10;1.83;;;16.50;99.90;;;;;;4877172;29;22636;-55
2022/09/01 06:47:27;;;;;;;6.43;1.83;;;16.70;1.00;;;;;;4873417;29;20455;-57
2022/09/01 06:49:57;;;;;;;3.20;1.80;;;17.00;1.00;;;;;;4872215;29;20485;-56
2022/09/01 06:52:23;;;;;;;1.87;1.60;;;17.30;1.00;;;;;;4860025;29;20779;-55
2022/09/01 06:54:53;;;;;;;2.60;1.80;;;17.60;1.00;;;;;;4875666;29;20437;-55
2022/09/01 06:57:20;;;;;;;3.43;1.70;;;17.90;1.00;;;;;;4877547;29;20555;-56
2022/09/01 06:59:46;;;;;;;3.33;1.50;;;18.20;1.00;;;;;;4878433;29;20417;-54
2022/09/01 07:02:15;;;;;;;3.80;1.77;;;18.40;1.00;;;;;;4876637;29;20437;-55
2022/09/01 07:04:42;;;;;;;3.50;1.50;;;18.70;1.00;;;;;;4877346;29;20448;-57
2022/09/01 07:07:09;;;;;;;1.27;1.17;;;18.90;99.90;;;;;;4877476;29;20441;-55
2022/09/01 07:09:35;;;;;;;3.60;1.23;;;19.20;99.90;;;;;;4877670;29;20449;-56
2022/09/01 07:12:02;;;;;;;8.20;1.17;;;19.50;99.90;;;;;;4878907;29;20436;-55
2022/09/01 07:14:29;;;;;;;9.47;1.70;;;19.70;99.90;;;;;;4873309;29;20195;-56
2022/09/01 07:16:56;;;;;;;2.50;1.10;;;20.00;99.90;;;;;;4873330;29;20469;-56
2022/09/01 07:19:24;;;;;;;2.70;1.23;;;20.30;99.90;;;;;;4865732;29;20540;-56
2022/09/01 07:21:51;;;;;;;2.23;1.40;;;20.60;99.90;;;;;;4861165;29;20445;-56
2022/09/01 07:24:19;;;;;;;5.17;1.30;;;20.90;99.90;;;;;;4864875;29;20441;-57
2022/09/01 07:26:50;;;;;;;3.10;1.33;;;21.10;99.90;;;;;;4859213;29;20481;-56
2022/09/01 07:29:18;;;;;;;1.93;1.30;;;21.30;99.90;;;;;;4859490;29;21374;-57
2022/09/01 07:31:44;;;;;;;2.50;1.33;;;21.50;99.90;;;;;;4859780;29;20421;-52
2022/09/01 07:34:13;;;;;;;2.40;1.17;;;21.70;99.90;;;;;;4877393;29;20456;-59
2022/09/01 07:36:41;;;;;;;1.17;1.07;;;22.00;99.90;;;;;;4881772;29;20219;-52
2022/09/01 07:39:08;;;;;;;1.70;1.00;;;22.20;99.90;;;;;;4878171;29;20821;-52
2022/09/01 07:41:34;;;;;;;2.67;1.33;;;22.30;99.90;;;;;;4891042;29;20821;-52
2022/09/01 07:44:02;;;;;;;2.67;1.47;;;22.40;99.90;;;;;;4895125;29;20429;-52
2022/09/01 07:46:30;;;;;;;1.73;1.10;;;22.60;99.90;;;;;;4878037;29;20549;-52
2022/09/01 07:48:56;;;;;;;2.80;0.90;;;23.00;99.90;;;;;;4870281;29;20479;-52
2022/09/01 07:51:24;;;;;;;2.73;1.00;;;23.10;99.90;;;;;;4879511;29;20994;-52
2022/09/01 07:53:50;;;;;;;5.13;1.00;;;23.30;99.90;;;;;;4877494;29;20613;-52
2022/09/01 07:56:19;;;;;;;2.80;0.90;;;23.60;99.90;;;;;;4877565;29;20531;-52
2022/09/01 07:58:46;;;;;;;1.33;1.00;;;23.80;99.90;;;;;;4864683;29;20189;-52
2022/09/01 08:01:17;;;;;;;1.40;1.07;;;23.90;99.90;;;;;;4893894;29;20427;-52
2022/09/01 08:03:47;;;;;;;1.53;1.07;;;24.10;99.90;;;;;;4874493;29;21200;-52
2022/09/01 08:06:18;;;;;;;2.30;1.00;;;24.40;99.90;;;;;;4894161;29;20942;-53
2022/09/01 08:08:44;;;;;;;35.60;29.07;;;24.60;99.90;;;;;;4889170;29;20453;-52
2022/09/01 08:11:22;;;;;;;5.80;4.70;;;24.80;99.90;;;;;;4883199;29;20436;-52
2022/09/01 08:13:48;;;;;;;1.10;1.00;;;25.10;99.90;;;;;;4884192;29;20483;-52
2022/09/01 08:16:13;;;;;;;1.37;1.07;;;25.20;99.90;;;;;;4887671;29;20544;-52
2022/09/01 08:18:40;;;;;;;1.30;1.07;;;25.50;99.90;;;;;;4886882;29;20452;-52
2022/09/01 08:21:08;;;;;;;2.80;1.07;;;25.80;99.90;;;;;;4885066;29;20195;-52
2022/09/01 08:23:36;;;;;;;2.13;0.87;;;25.90;99.90;;;;;;4889300;29;20452;-52
2022/09/01 08:26:08;;;;;;;1.10;0.90;;;25.90;99.90;;;;;;4879917;29;21035;-52
2022/09/01 08:28:34;;;;;;;1.57;1.00;;;25.90;99.90;;;;;;4893697;29;20575;-52
2022/09/01 08:31:04;;;;;;;2.20;1.07;;;26.20;99.90;;;;;;4893503;29;20502;-53
2022/09/01 08:33:34;;;;;;;5.33;1.13;;;26.30;99.90;;;;;;4895377;29;20491;-52
2022/09/01 08:36:00;;;;;;;1.63;1.10;;;26.50;99.90;;;;;;4891569;29;20475;-53
2022/09/01 08:38:26;;;;;;;1.00;0.90;;;26.60;99.90;;;;;;4896657;29;20436;-53
2022/09/01 08:40:55;;;;;;;1.33;0.97;;;26.90;99.90;;;;;;4882359;29;20440;-53
2022/09/01 08:43:31;;;;;;;4.53;0.80;;;27.20;99.90;;;;;;4888652;29;20438;-53
2022/09/01 08:46:03;;;;;;;0.90;0.70;;;27.10;99.90;;;;;;4890561;29;20451;-53
2022/09/01 08:48:29;;;;;;;1.27;0.80;;;26.90;99.90;;;;;;4895095;29;20431;-53
2022/09/01 08:51:02;;;;;;;1.37;0.90;;;26.90;99.90;;;;;;4892180;29;20447;-53
2022/09/01 08:53:33;;;;;;;2.37;0.80;;;26.70;99.90;;;;;;4893200;29;20204;-53
2022/09/01 08:55:59;;;;;;;1.30;0.80;;;26.60;99.90;;;;;;4889976;29;20484;-54
2022/09/01 08:58:29;;;;;;;1.23;0.70;;;26.50;99.90;;;;;;4895319;29;20472;-52
2022/09/01 09:01:00;;;;;;;0.80;0.73;;;26.50;99.90;;;;;;4894363;29;20443;-53
2022/09/01 09:04:01;;;;;;;1.00;0.90;;;26.70;99.90;;;;;;4900129;29;20416;-53
2022/09/01 09:06:51;;;;;;;1.10;1.00;;;27.00;99.90;;;;;;4895636;29;20919;-53
2022/09/01 09:09:17;;;;;;;1.17;0.90;;;27.00;99.90;;;;;;4888986;29;20536;-53
2022/09/01 09:11:52;;;;;;;2.10;0.90;;;26.90;99.90;;;;;;4898140;29;20511;-53
2022/09/01 09:14:27;;;;;;;2.40;1.50;;;26.90;99.90;;;;;;4893378;29;20221;-53
2022/09/01 09:16:55;;;;;;;1.90;0.80;;;26.80;99.90;;;;;;4897918;29;20546;-53
2022/09/01 09:19:27;;;;;;;0.90;0.70;;;26.70;99.90;;;;;;4892582;29;20459;-53
2022/09/01 09:21:56;;;;;;;1.53;0.93;;;26.60;99.90;;;;;;4890421;29;20432;-53
2022/09/01 09:24:45;;;;;;;2.00;1.10;;;26.40;99.90;;;;;;4897948;29;20440;-52
2022/09/01 09:27:17;;;;;;;1.20;1.10;;;26.10;99.90;;;;;;4896456;29;20634;-53
2022/09/01 09:29:44;;;;;;;0.93;0.80;;;25.60;99.90;;;;;;4892674;29;20459;-53
2022/09/01 09:32:10;;;;;;;3.47;0.90;;;25.30;99.90;;;;;;4898050;29;20441;-53
2022/09/01 09:34:41;;;;;;;1.10;1.00;;;25.10;99.90;;;;;;4893739;29;20966;-53
2022/09/01 09:37:26;;;;;;;1.43;0.87;;;24.90;99.90;;;;;;4894527;29;20223;-53
2022/09/01 09:40:15;;;;;;;1.00;0.90;;;24.50;99.90;;;;;;4894564;29;20527;-52
2022/09/01 09:43:02;;;;;;;1.13;0.80;;;24.10;99.90;;;;;;4894914;29;20942;-53
2022/09/01 09:45:35;;;;;;;1.00;0.70;;;23.80;99.90;;;;;;4895362;29;20444;-53
2022/09/01 09:48:06;;;;;;;1.40;1.00;;;23.50;99.90;;;;;;4891017;29;20436;-53
2022/09/01 09:50:39;;;;;;;2.33;0.90;;;23.40;99.90;;;;;;4895701;29;20915;-53
2022/09/01 09:53:25;;;;;;;2.90;0.90;;;23.10;99.90;;;;;;4896457;29;20428;-53
2022/09/01 09:56:03;;;;;;;2.50;0.97;;;23.00;99.90;;;;;;4884574;29;20480;-58
2022/09/01 09:58:35;;;;;;;1.00;0.87;;;23.00;99.90;;;;;;4882054;29;20886;-58
2022/09/01 10:01:14;;;;;;;1.17;0.93;;;22.90;99.90;;;;;;4879133;29;20456;-57
2022/09/01 10:04:02;;;;;;;2.60;1.07;;;23.00;99.90;;;;;;4873534;29;20440;-58
2022/09/01 10:06:34;;;;;;;1.00;0.83;;;23.10;99.90;;;;;;4879381;29;20461;-56
2022/09/01 10:09:03;;;;;;;2.30;0.90;;;23.30;99.90;;;;;;4879279;29;20415;-57
2022/09/01 10:11:36;;;;;;;1.83;0.80;;;23.30;99.90;;;;;;4878594;29;20540;-58
2022/09/01 10:14:05;;;;;;;3.40;0.80;;;23.20;99.90;;;;;;4879374;29;20433;-57
2022/09/01 10:16:36;;;;;;;0.90;0.90;;;23.20;99.90;;;;;;4880392;29;20479;-53
2022/09/01 10:19:01;;;;;;;2.97;0.90;;;23.40;99.90;;;;;;4874021;29;20951;-53
2022/09/01 10:21:39;;;;;;;3.63;1.07;;;23.50;99.90;;;;;;4878983;29;20427;-53
2022/09/01 10:24:20;;;;;;;2.63;1.00;;;23.70;99.90;;;;;;4879057;29;20228;-53
2022/09/01 10:26:50;;;;;;;4.60;1.10;;;23.70;99.90;;;;;;4879042;29;20856;-53
2022/09/01 10:29:25;;;;;;;5.20;0.93;;;23.90;99.90;;;;;;4879067;29;20413;-53
2022/09/01 10:31:54;;;;;;;1.33;0.90;;;24.30;99.90;;;;;;4879110;29;20781;-53
2022/09/01 10:34:21;;;;;;;1.83;0.80;;;24.60;99.90;;;;;;4878898;29;20504;-57
2022/09/01 10:36:48;;;;;;;1.03;0.80;;;25.10;99.90;;;;;;4861717;29;20568;-53
2022/09/01 10:39:16;;;;;;;2.30;1.00;;;25.50;99.90;;;;;;4860329;29;20426;-53
2022/09/01 10:41:44;;;;;;;2.60;0.80;;;25.60;99.90;;;;;;4877013;29;20444;-53
2022/09/01 10:44:29;;;;;;;2.30;1.30;;;26.10;99.90;;;;;;4878608;29;20509;-53
2022/09/01 10:46:56;;;;;;;1.00;0.80;;;26.80;99.90;;;;;;4878597;29;20486;-53
2022/09/01 10:49:44;;;;;;;1.43;0.80;;;27.60;99.90;;;;;;4878493;29;20485;-53
2022/09/01 10:52:10;;;;;;;1.77;1.10;;;28.20;99.90;;;;;;4859222;29;20432;-53
2022/09/01 10:54:39;;;;;;;1.27;1.00;;;28.60;99.90;;;;;;4878324;29;20487;-53
2022/09/01 10:57:27;;;;;;;1.03;0.93;;;29.00;99.90;;;;;;4878256;29;20573;-53
2022/09/01 10:59:56;;;;;;;1.20;0.90;;;29.40;99.90;;;;;;4878309;29;20413;-53
2022/09/01 11:02:22;;;;;;;1.23;1.00;;;29.80;99.90;;;;;;4878367;29;20429;-53
2022/09/01 11:04:47;;;;;;;1.53;1.00;;;30.60;99.90;;;;;;4861380;29;20440;-53
2022/09/01 11:07:22;;;;;;;1.00;0.90;;;31.30;99.90;;;;;;4878052;29;20196;-53
2022/09/01 11:10:11;;;;;;;4.17;1.03;;;31.80;99.90;;;;;;4877992;29;20207;-53
2022/09/01 11:12:47;;;;;;;0.83;0.70;;;32.10;99.90;;;;;;4858446;29;20451;-53
2022/09/01 11:15:15;;;;;;;1.43;1.00;;;32.20;99.90;;;;;;4878165;29;20421;-53
2022/09/01 11:17:50;;;;;;;1.00;0.90;;;32.00;99.90;;;;;;4877832;29;20464;-53
2022/09/01 11:20:21;;;;;;;4.90;0.90;;;32.30;99.90;;;;;;4877679;29;20409;-53
2022/09/01 11:23:22;;;;;;;1.93;1.00;;;32.20;99.90;;;;;;4876858;29;20493;-54
2022/09/01 11:26:21;;;;;;;1.57;0.80;;;30.90;99.90;;;;;;4873833;29;20552;-53
2022/09/01 11:28:47;;;;;;;1.40;0.73;;;29.70;99.90;;;;;;4877984;29;20457;-53
2022/09/01 11:31:23;;;;;;;1.17;0.80;;;28.90;99.90;;;;;;4877797;29;20432;-53
2022/09/01 11:34:09;;;;;;;4.50;0.93;;;28.80;99.90;;;;;;4877590;29;20219;-53
2022/09/01 11:36:47;;;;;;;5.33;1.50;;;29.30;99.90;;;;;;4877725;29;20816;-53
2022/09/01 11:39:21;;;;;;;3.10;0.90;;;29.70;99.90;;;;;;4875898;29;20468;-56
2022/09/01 11:42:08;;;;;;;10.90;1.10;;;30.30;99.90;;;;;;4877184;29;20437;-59
2022/09/01 11:45:17;;;;;;;2.17;1.00;;;30.50;99.90;;;;;;4878589;29;20431;-57
2022/09/01 11:47:48;;;;;;;1.57;0.90;;;30.70;99.90;;;;;;4865942;29;20437;-58
2022/09/01 11:50:24;;;;;;;7.40;0.90;;;30.70;99.90;;;;;;4876894;29;20445;-56
2022/09/01 11:52:52;;;;;;;3.47;0.90;;;30.90;99.90;;;;;;4876409;29;20427;-54
2022/09/01 11:55:39;;;;;;;3.33;1.47;;;31.00;99.90;;;;;;4870898;29;20447;-57
2022/09/01 11:58:08;;;;;;;2.73;0.90;;;31.00;99.90;;;;;;4877407;29;20535;-58
2022/09/01 12:00:37;;;;;;;1.93;1.10;;;31.00;99.90;;;;;;4876736;29;20445;-58
2022/09/01 12:03:23;;;;;;;3.70;0.90;;;31.50;99.90;;;;;;4877011;29;20475;-58
2022/09/01 12:06:00;;;;;;;1.63;0.97;;;31.90;99.90;;;;;;4876751;29;20513;-62
2022/09/01 12:08:29;;;;;;;1.37;0.90;;;31.00;99.90;;;;;;4877170;29;20420;-58
2022/09/01 12:11:17;;;;;;;1.77;0.90;;;29.80;99.90;;;;;;4876731;29;20449;-58
2022/09/01 12:13:55;;;;;;;4.03;1.00;;;28.30;99.90;;;;;;4877087;29;20432;-59
2022/09/01 12:16:21;;;;;;;1.40;0.87;;;27.10;99.90;;;;;;4876813;29;20480;-57
2022/09/01 12:18:50;;;;;;;3.73;0.90;;;25.90;99.90;;;;;;4877278;29;20416;-60
2022/09/01 12:21:41;;;;;;;1.47;0.80;;;25.30;99.90;;;;;;4876249;29;20440;-58
2022/09/01 12:24:10;;;;;;;3.23;0.90;;;24.90;99.90;;;;;;4870702;29;20970;-59
2022/09/01 12:26:37;;;;;;;1.27;0.80;;;24.60;99.90;;;;;;4876090;29;20454;-59
2022/09/01 12:29:04;;;;;;;2.10;1.00;;;24.30;99.90;;;;;;4876345;29;20896;-59
2022/09/01 12:31:30;;;;;;;1.40;0.80;;;24.40;99.90;;;;;;4877065;29;20456;-60
2022/09/01 12:33:55;;;;;;;1.00;0.97;;;24.40;99.90;;;;;;4879354;29;20428;-58
2022/09/01 12:36:29;;;;;;;1.10;1.00;;;24.20;99.90;;;;;;4880922;29;20253;-58
2022/09/01 12:39:31;;;;;;;1.00;0.90;;;24.00;99.90;;;;;;4880612;29;20259;-57
2022/09/01 12:42:20;;;;;;;1.30;0.90;;;23.90;99.90;;;;;;4860106;29;20452;-59
2022/09/01 12:44:52;;;;;;;2.03;1.07;;;24.00;99.90;;;;;;4872818;29;20443;-53
2022/09/01 12:47:34;;;;;;;4.40;1.33;;;24.80;99.90;;;;;;4880929;29;20444;-52
2022/09/01 12:50:02;;;;;;;5.10;0.80;;;26.50;99.90;;;;;;4879635;29;20460;-53
2022/09/01 12:52:29;;;;;;;5.87;1.13;;;27.50;99.90;;;;;;4880844;29;20436;-53
2022/09/01 12:54:57;;;;;;;5.70;1.17;;;27.40;99.90;;;;;;4879550;29;20448;-53
2022/09/01 12:57:36;;;;;;;6.93;1.20;;;26.70;99.90;;;;;;4880210;29;20500;-54
2022/09/01 13:00:32;;;;;;;1.33;1.17;;;25.70;99.90;;;;;;4880476;29;20421;-53
2022/09/01 13:03:20;;;;;;;7.20;1.03;;;24.80;99.90;;;;;;4879285;29;20441;-54
2022/09/01 13:05:50;;;;;;;2.90;1.10;;;24.20;99.90;;;;;;4880350;29;20919;-53
2022/09/01 13:08:24;;;;;;;1.70;1.03;;;23.70;99.90;;;;;;4879393;29;20459;-53
2022/09/01 13:11:13;;;;;;;3.63;0.90;;;23.40;99.90;;;;;;4880077;29;20429;-53
2022/09/01 13:13:38;;;;;;;1.50;1.03;;;23.20;99.90;;;;;;4879684;29;20572;-53